createdAt,value
2023-05-14T00:00:58.541Z,1000.8
2023-05-14T00:02:07.000Z,1000.8
2023-05-14T00:03:31.184Z,1000.8
2023-05-14T00:04:39.000Z,1000.7
2023-05-14T00:06:02.597Z,1000.8
2023-05-14T00:07:11.000Z,1000.7
2023-05-14T00:08:34.985Z,1000.7
2023-05-14T00:09:51.177Z,1000.7
2023-05-14T00:10:59.000Z,1000.8
2023-05-14T00:12:16.000Z,1000.7
2023-05-14T00:13:39.518Z,1000.7
2023-05-14T00:14:48.000Z,1000.6
2023-05-14T00:16:04.000Z,1000.6
2023-05-14T00:17:20.000Z,1000.6
2023-05-14T00:18:24.000Z,1000.6
2023-05-14T00:18:44.303Z,1000.7
2023-05-14T00:20:00.499Z,1000.6
2023-05-14T00:21:16.940Z,1000.6
2023-05-14T00:22:32.156Z,1000.7
2023-05-14T00:23:48.344Z,1000.7
2023-05-14T00:26:20.495Z,1000.6
2023-05-14T00:27:29.000Z,1000.6
2023-05-14T00:28:52.888Z,1000.6
2023-05-14T00:30:09.084Z,1000.6
2023-05-14T00:31:25.524Z,1000.6
2023-05-14T00:32:34.000Z,1000.7
2023-05-14T00:33:57.673Z,1000.7
2023-05-14T00:35:13.869Z,1000.6
2023-05-14T00:36:30.066Z,1000.6
2023-05-14T00:37:46.507Z,1000.7
2023-05-14T00:39:01.720Z,1000.7
2023-05-14T00:40:17.915Z,1000.7
2023-05-14T00:41:34.115Z,1000.6
2023-05-14T00:42:42.000Z,1000.7
2023-05-14T00:43:47.000Z,1000.5
2023-05-14T00:44:06.508Z,1000.6
2023-05-14T00:45:15.000Z,1000.6
2023-05-14T00:46:31.000Z,1000.6
2023-05-14T00:47:47.000Z,1000.5
2023-05-14T00:49:11.297Z,1000.5
2023-05-14T00:51:36.000Z,1000.6
2023-05-14T00:52:52.000Z,1000.5
2023-05-14T00:54:08.000Z,1000.5
2023-05-14T00:55:23.000Z,1000.5
2023-05-14T00:56:39.000Z,1000.6
2023-05-14T00:58:03.432Z,1000.5
2023-05-14T00:59:19.628Z,1000.5
2023-05-14T01:00:35.823Z,1000.5
2023-05-14T01:01:44.000Z,1000.5
2023-05-14T01:03:08.455Z,1000.5
2023-05-14T01:04:24.411Z,1000.5
2023-05-14T01:05:33.000Z,1000.5
2023-05-14T01:06:56.804Z,1000.6
2023-05-14T01:08:05.000Z,1000.6
2023-05-14T01:09:21.000Z,1000.6
2023-05-14T01:10:45.640Z,1000.6
2023-05-14T01:12:00.853Z,1000.6
2023-05-14T01:13:16.800Z,1000.6
2023-05-14T01:14:25.000Z,1000.6
2023-05-14T01:15:49.437Z,1000.6
2023-05-14T01:16:58.000Z,1000.6
2023-05-14T01:18:21.584Z,1000.5
2023-05-14T01:19:37.780Z,1000.6
2023-05-14T01:20:53.976Z,1000.5
2023-05-14T01:22:10.414Z,1000.5
2023-05-14T01:23:19.000Z,1000.6
2023-05-14T01:24:42.563Z,1000.6
2023-05-14T01:25:51.000Z,1000.5
2023-05-14T01:27:07.000Z,1000.5
2023-05-14T01:28:30.416Z,1000.5
2023-05-14T01:29:39.000Z,1000.5
2023-05-14T01:30:55.000Z,1000.5
2023-05-14T01:32:11.000Z,1000.5
2023-05-14T01:33:27.000Z,1000.5
2023-05-14T01:34:51.396Z,1000.5
2023-05-14T01:36:07.344Z,1000.5
2023-05-14T01:37:23.791Z,1000.5
2023-05-14T01:38:32.000Z,1000.5
2023-05-14T01:39:56.184Z,1000.5
2023-05-14T01:41:12.128Z,1000.5
2023-05-14T01:42:28.577Z,1000.5
2023-05-14T01:43:37.000Z,1000.5
2023-05-14T01:44:52.000Z,1000.5
2023-05-14T01:46:15.929Z,1000.5
2023-05-14T01:47:24.000Z,1000.4
2023-05-14T01:48:41.000Z,1000.4
2023-05-14T01:50:04.518Z,1000.5
2023-05-14T01:51:20.714Z,1000.4
2023-05-14T01:52:36.182Z,1000.4
2023-05-14T01:53:44.000Z,1000.3
2023-05-14T01:55:08.578Z,1000.3
2023-05-14T01:56:17.000Z,1000.3
2023-05-14T01:57:33.000Z,1000.3
2023-05-14T01:58:49.000Z,1000.3
2023-05-14T02:00:13.361Z,1000.3
2023-05-14T02:01:29.304Z,1000.3
2023-05-14T02:02:38.000Z,1000.3
2023-05-14T02:03:54.000Z,1000.3
2023-05-14T02:05:18.143Z,1000.3
2023-05-14T02:06:26.000Z,1000.3
2023-05-14T02:07:42.000Z,1000.3
2023-05-14T02:08:58.000Z,1000.2
2023-05-14T02:10:21.931Z,1000.2
2023-05-14T02:11:19.000Z,1000.3
2023-05-14T02:11:30.000Z,1000.2
2023-05-14T02:12:54.072Z,1000.3
2023-05-14T02:14:10.266Z,1000.3
2023-05-14T02:15:19.000Z,1000.3
2023-05-14T02:16:35.000Z,1000.3
2023-05-14T02:19:07.000Z,1000.3
2023-05-14T02:20:31.235Z,1000.3
2023-05-14T02:21:40.000Z,1000.3
2023-05-14T02:23:03.865Z,1000.2
2023-05-14T02:24:12.000Z,1000.3
2023-05-14T02:25:27.000Z,1000.2
2023-05-14T02:26:51.473Z,1000.2
2023-05-14T02:28:07.413Z,1000.3
2023-05-14T02:29:16.000Z,1000.3
2023-05-14T02:30:32.000Z,1000.2
2023-05-14T02:31:56.237Z,1000.2
2023-05-14T02:33:04.000Z,1000.2
2023-05-14T02:34:21.000Z,1000.2
2023-05-14T02:35:37.000Z,1000.2
2023-05-14T02:37:01.014Z,1000.2
2023-05-14T02:38:09.000Z,1000.2
2023-05-14T02:39:25.000Z,1000.1
2023-05-14T02:40:49.352Z,1000.1
2023-05-14T02:42:04.562Z,1000.1
2023-05-14T02:43:13.000Z,1000.1
2023-05-14T02:44:36.950Z,1000.1
2023-05-14T02:45:34.000Z,1000.1
2023-05-14T02:45:45.000Z,1000.1
2023-05-14T02:47:09.582Z,1000
2023-05-14T02:48:25.773Z,1000
2023-05-14T02:49:34.000Z,1000
2023-05-14T02:50:58.178Z,1000
2023-05-14T02:53:30.306Z,1000
2023-05-14T02:54:39.000Z,1000
2023-05-14T02:55:55.000Z,1000
2023-05-14T02:57:19.135Z,1000
2023-05-14T02:58:35.081Z,1000
2023-05-14T02:59:42.000Z,1000
2023-05-14T03:01:06.485Z,1000
2023-05-14T03:02:15.000Z,1000
2023-05-14T03:03:31.000Z,1000
2023-05-14T03:04:47.000Z,1000
2023-05-14T03:06:11.511Z,1000
2023-05-14T03:07:27.454Z,1000
2023-05-14T03:08:36.000Z,1000
2023-05-14T03:09:52.000Z,999.9
2023-05-14T03:11:16.036Z,999.9
2023-05-14T03:12:24.000Z,999.9
2023-05-14T03:13:41.000Z,1000
2023-05-14T03:15:04.618Z,999.9
2023-05-14T03:16:19.828Z,999.9
2023-05-14T03:17:28.000Z,999.9
2023-05-14T03:18:52.215Z,999.9
2023-05-14T03:20:08.653Z,999.9
2023-05-14T03:21:24.603Z,999.9
2023-05-14T03:22:33.000Z,999.9
2023-05-14T03:23:56.990Z,999.9
2023-05-14T03:25:05.000Z,999.8
2023-05-14T03:26:22.000Z,999.9
2023-05-14T03:27:38.000Z,999.9
2023-05-14T03:28:54.000Z,999.9
2023-05-14T03:30:18.203Z,999.8
2023-05-14T03:31:34.402Z,999.9
2023-05-14T03:32:42.000Z,999.8
2023-05-14T03:34:05.803Z,999.8
2023-05-14T03:35:14.000Z,999.8
2023-05-14T03:36:38.191Z,999.8
2023-05-14T03:37:46.000Z,999.8
2023-05-14T03:39:10.573Z,999.8
2023-05-14T03:40:19.000Z,999.8
2023-05-14T03:41:42.721Z,999.8
2023-05-14T03:42:51.000Z,999.8
2023-05-14T03:44:15.351Z,999.8
2023-05-14T03:45:31.544Z,999.9
2023-05-14T03:46:47.496Z,999.9
2023-05-14T03:47:56.000Z,999.9
2023-05-14T03:49:11.000Z,999.9
2023-05-14T03:50:27.000Z,999.9
2023-05-14T03:51:51.530Z,999.9
2023-05-14T03:53:07.733Z,999.9
2023-05-14T03:54:16.000Z,999.9
2023-05-14T03:55:39.869Z,999.9
2023-05-14T03:56:48.000Z,999.9
2023-05-14T03:58:04.000Z,999.9
2023-05-14T03:59:28.705Z,999.9
2023-05-14T04:00:37.000Z,1000
2023-05-14T04:02:00.838Z,1000
2023-05-14T04:03:09.000Z,1000
2023-05-14T04:04:25.000Z,999.9
2023-05-14T04:05:41.000Z,999.9
2023-05-14T04:07:04.878Z,999.9
2023-05-14T04:08:13.000Z,1000
2023-05-14T04:09:37.017Z,999.9
2023-05-14T04:10:45.000Z,1000
2023-05-14T04:12:02.000Z,999.9
2023-05-14T04:13:25.843Z,1000
2023-05-14T04:14:41.793Z,1000
2023-05-14T04:15:58.234Z,999.9
2023-05-14T04:17:14.436Z,999.9
2023-05-14T04:18:30.617Z,999.9
2023-05-14T04:19:46.568Z,999.8
2023-05-14T04:20:55.000Z,999.9
2023-05-14T04:22:17.973Z,999.9
2023-05-14T04:23:34.412Z,999.9
2023-05-14T04:24:50.360Z,999.9
2023-05-14T04:25:59.000Z,1000
2023-05-14T04:27:22.747Z,1000
2023-05-14T04:28:20.000Z,999.9
2023-05-14T04:28:39.201Z,1000
2023-05-14T04:29:55.388Z,1000
2023-05-14T04:31:04.000Z,1000
2023-05-14T04:32:20.000Z,1000
2023-05-14T04:33:43.716Z,1000
2023-05-14T04:36:16.104Z,1000
2023-05-14T04:37:32.562Z,999.9
2023-05-14T04:38:47.753Z,1000
2023-05-14T04:40:03.701Z,999.9
2023-05-14T04:41:12.000Z,999.9
2023-05-14T04:42:28.000Z,999.9
2023-05-14T04:43:52.526Z,1000
2023-05-14T04:45:01.000Z,999.9
2023-05-14T04:46:17.000Z,999.9
2023-05-14T04:47:40.864Z,1000
2023-05-14T04:48:57.311Z,1000
2023-05-14T04:50:05.000Z,1000
2023-05-14T04:51:22.000Z,1000
2023-05-14T04:52:38.000Z,999.9
2023-05-14T04:54:01.833Z,1000
2023-05-14T04:55:17.294Z,999.9
2023-05-14T04:56:25.000Z,1000
2023-05-14T04:57:49.431Z,999.9
2023-05-14T04:58:58.000Z,1000
2023-05-14T05:00:22.061Z,1000
2023-05-14T05:01:38.259Z,1000
2023-05-14T05:02:54.206Z,1000
2023-05-14T05:04:03.000Z,1000.1
2023-05-14T05:05:26.593Z,1000.1
2023-05-14T05:06:43.033Z,1000.1
2023-05-14T05:07:51.000Z,1000.1
2023-05-14T05:09:07.000Z,1000.2
2023-05-14T05:10:24.000Z,1000.1
2023-05-14T05:11:46.578Z,1000.1
2023-05-14T05:13:02.772Z,1000.1
2023-05-14T05:14:11.000Z,1000.1
2023-05-14T05:15:35.160Z,1000
2023-05-14T05:16:44.000Z,1000.1
2023-05-14T05:18:07.547Z,1000.1
2023-05-14T05:19:16.000Z,1000.1
2023-05-14T05:20:32.000Z,1000.1
2023-05-14T05:21:48.000Z,1000
2023-05-14T05:23:12.323Z,1000
2023-05-14T05:24:21.000Z,1000.1
2023-05-14T05:25:44.711Z,1000.1
2023-05-14T05:26:53.000Z,1000.1
2023-05-14T05:28:16.115Z,1000
2023-05-14T05:29:24.000Z,1000
2023-05-14T05:30:41.000Z,1000
2023-05-14T05:31:57.000Z,1000
2023-05-14T05:33:13.000Z,1000
2023-05-14T05:34:29.000Z,1000
2023-05-14T05:35:45.000Z,1000
2023-05-14T05:37:09.728Z,999.9
2023-05-14T05:38:18.000Z,999.9
2023-05-14T05:39:34.000Z,1000
2023-05-14T05:40:50.000Z,1000
2023-05-14T05:42:14.490Z,1000
2023-05-14T05:43:30.438Z,1000
2023-05-14T05:44:38.000Z,1000
2023-05-14T05:46:01.842Z,1000
2023-05-14T05:47:10.000Z,999.9
2023-05-14T05:48:34.230Z,1000
2023-05-14T05:49:50.668Z,1000
2023-05-14T05:50:59.000Z,1000
2023-05-14T05:52:22.811Z,1000
2023-05-14T05:53:39.253Z,1000
2023-05-14T05:54:55.442Z,999.9
2023-05-14T05:56:11.644Z,1000
2023-05-14T05:57:20.000Z,1000
2023-05-14T05:58:36.000Z,1000
2023-05-14T06:00:00.221Z,1000
2023-05-14T06:01:15.437Z,999.9
2023-05-14T06:02:31.377Z,1000
2023-05-14T06:03:47.810Z,1000
2023-05-14T06:04:56.000Z,1000
2023-05-14T06:06:20.206Z,999.9
2023-05-14T06:07:35.420Z,1000
2023-05-14T06:08:51.606Z,999.9
2023-05-14T06:10:07.810Z,1000
2023-05-14T06:11:23.995Z,1000
2023-05-14T06:12:32.000Z,999.9
2023-05-14T06:13:56.141Z,999.8
2023-05-14T06:15:12.582Z,999.9
2023-05-14T06:16:28.771Z,999.9
2023-05-14T06:17:44.723Z,999.9
2023-05-14T06:19:01.158Z,999.9
2023-05-14T06:20:17.351Z,999.9
2023-05-14T06:21:33.303Z,999.9
2023-05-14T06:22:42.000Z,999.8
2023-05-14T06:24:04.707Z,999.9
2023-05-14T06:25:13.000Z,999.8
2023-05-14T06:26:37.341Z,999.9
2023-05-14T06:27:45.000Z,999.8
2023-05-14T06:29:09.481Z,999.8
2023-05-14T06:30:18.000Z,999.9
2023-05-14T06:31:42.110Z,999.8
2023-05-14T06:32:50.000Z,999.8
2023-05-14T06:34:14.256Z,999.8
2023-05-14T06:35:23.000Z,999.8
2023-05-14T06:36:46.643Z,999.9
2023-05-14T06:37:55.000Z,999.9
2023-05-14T06:39:19.281Z,999.9
2023-05-14T06:40:26.000Z,999.8
2023-05-14T06:41:50.675Z,999.7
2023-05-14T06:43:06.627Z,999.7
2023-05-14T06:44:22.821Z,999.7
2023-05-14T06:45:39.014Z,999.7
2023-05-14T06:46:47.000Z,999.8
2023-05-14T06:48:04.000Z,999.8
2023-05-14T06:49:27.596Z,999.8
2023-05-14T06:50:36.000Z,999.8
2023-05-14T06:52:00.241Z,999.8
2023-05-14T06:53:08.000Z,999.9
2023-05-14T06:54:32.615Z,999.8
2023-05-14T06:55:48.804Z,999.8
2023-05-14T06:57:04.024Z,999.8
2023-05-14T06:58:12.000Z,999.8
2023-05-14T06:59:28.000Z,999.7
2023-05-14T07:00:52.600Z,999.8
2023-05-14T07:02:08.549Z,999.8
2023-05-14T07:03:17.000Z,999.8
2023-05-14T07:04:33.000Z,999.8
2023-05-14T07:05:49.000Z,999.9
2023-05-14T07:07:05.000Z,1000
2023-05-14T07:08:29.518Z,999.9
2023-05-14T07:09:45.958Z,1000
2023-05-14T07:11:02.148Z,1000.1
2023-05-14T07:12:10.000Z,1000
2023-05-14T07:13:33.552Z,1000
2023-05-14T07:14:49.000Z,1000
2023-05-14T07:15:58.000Z,1000
2023-05-14T07:17:22.145Z,1000
2023-05-14T07:18:38.326Z,999.9
2023-05-14T07:19:54.276Z,1000
2023-05-14T07:21:10.470Z,999.9
2023-05-14T07:22:19.000Z,999.9
2023-05-14T07:23:35.000Z,999.9
2023-05-14T07:24:59.052Z,999.9
2023-05-14T07:26:07.000Z,1000
2023-05-14T07:27:31.439Z,999.9
2023-05-14T07:28:40.000Z,999.9
2023-05-14T07:30:02.843Z,999.9
2023-05-14T07:31:11.000Z,999.9
2023-05-14T07:32:35.230Z,1000
2023-05-14T07:33:44.000Z,1000
2023-05-14T07:34:48.000Z,999.9
2023-05-14T07:35:07.617Z,999.9
2023-05-14T07:36:24.062Z,1000
2023-05-14T07:37:40.004Z,1000
2023-05-14T07:38:56.198Z,999.9
2023-05-14T07:40:12.633Z,999.9
2023-05-14T07:42:44.779Z,999.9
2023-05-14T07:43:53.000Z,999.9
2023-05-14T07:45:09.000Z,999.9
2023-05-14T07:46:25.000Z,999.9
2023-05-14T07:47:41.000Z,999.8
2023-05-14T07:49:04.763Z,999.8
2023-05-14T07:50:20.956Z,999.8
2023-05-14T07:51:37.150Z,999.8
2023-05-14T07:52:45.000Z,999.8
2023-05-14T07:54:09.783Z,999.8
2023-05-14T07:55:25.975Z,999.8
2023-05-14T07:56:42.174Z,999.7
2023-05-14T07:57:58.382Z,999.7
2023-05-14T07:59:14.313Z,999.8
2023-05-14T08:00:30.749Z,999.8
2023-05-14T08:01:39.000Z,999.8
2023-05-14T08:03:02.159Z,999.8
2023-05-14T08:04:10.000Z,999.7
2023-05-14T08:05:26.000Z,999.7
2023-05-14T08:06:43.000Z,999.7
2023-05-14T08:07:59.000Z,999.8
2023-05-14T08:09:23.132Z,999.7
2023-05-14T08:10:31.000Z,999.8
2023-05-14T08:11:55.265Z,999.7
2023-05-14T08:13:11.459Z,999.7
2023-05-14T08:14:27.896Z,999.7
2023-05-14T08:15:36.000Z,999.7
2023-05-14T08:16:52.000Z,999.6
2023-05-14T08:18:16.233Z,999.7
2023-05-14T08:19:31.694Z,999.6
2023-05-14T08:20:40.000Z,999.7
2023-05-14T08:22:04.075Z,999.6
2023-05-14T08:23:20.024Z,999.7
2023-05-14T08:24:36.217Z,999.7
2023-05-14T08:25:52.656Z,999.6
2023-05-14T08:27:08.847Z,999.6
2023-05-14T08:28:17.000Z,999.7
2023-05-14T08:29:33.000Z,999.7
2023-05-14T08:30:49.000Z,999.7
2023-05-14T08:32:05.000Z,999.7
2023-05-14T08:33:29.816Z,999.6
2023-05-14T08:34:38.000Z,999.7
2023-05-14T08:35:53.000Z,999.6
2023-05-14T08:37:09.000Z,999.7
2023-05-14T08:38:33.364Z,999.6
2023-05-14T08:39:49.804Z,999.6
2023-05-14T08:41:06.001Z,999.6
2023-05-14T08:42:21.945Z,999.7
2023-05-14T08:43:38.138Z,999.6
2023-05-14T08:44:46.000Z,999.6
2023-05-14T08:46:10.781Z,999.6
2023-05-14T08:47:19.000Z,999.5
2023-05-14T08:48:42.913Z,999.5
2023-05-14T08:49:51.000Z,999.5
2023-05-14T08:51:07.000Z,999.4
2023-05-14T08:52:23.000Z,999.5
2023-05-14T08:53:46.950Z,999.5
2023-05-14T08:55:03.151Z,999.5
2023-05-14T08:56:19.338Z,999.5
2023-05-14T08:57:35.528Z,999.5
2023-05-14T08:58:51.478Z,999.5
2023-05-14T09:00:07.915Z,999.5
2023-05-14T09:01:24.116Z,999.5
2023-05-14T09:02:32.000Z,999.5
2023-05-14T09:03:56.253Z,999.4
2023-05-14T09:05:05.000Z,999.4
2023-05-14T09:06:28.641Z,999.5
2023-05-14T09:07:37.000Z,999.5
2023-05-14T09:09:00.045Z,999.4
2023-05-14T09:10:08.000Z,999.5
2023-05-14T09:11:32.431Z,999.5
2023-05-14T09:12:48.625Z,999.4
2023-05-14T09:13:57.000Z,999.4
2023-05-14T09:15:13.000Z,999.4
2023-05-14T09:16:29.000Z,999.5
2023-05-14T09:17:53.399Z,999.4
2023-05-14T09:19:09.835Z,999.4
2023-05-14T09:20:26.043Z,999.4
2023-05-14T09:21:34.000Z,999.4
2023-05-14T09:22:50.000Z,999.4
2023-05-14T09:24:14.367Z,999.4
2023-05-14T09:25:22.000Z,999.4
2023-05-14T09:26:46.026Z,999.4
2023-05-14T09:27:54.000Z,999.3
2023-05-14T09:29:18.157Z,999.3
2023-05-14T09:30:26.000Z,999.3
2023-05-14T09:31:50.545Z,999.3
2023-05-14T09:32:59.000Z,999.3
2023-05-14T09:34:23.182Z,999.2
2023-05-14T09:35:31.000Z,999.2
2023-05-14T09:36:55.570Z,999.2
2023-05-14T09:38:04.000Z,999.2
2023-05-14T09:39:20.000Z,999.3
2023-05-14T09:40:36.000Z,999.2
2023-05-14T09:41:59.358Z,999.2
2023-05-14T09:43:07.000Z,999.3
2023-05-14T09:44:31.498Z,999.2
2023-05-14T09:45:40.000Z,999.3
2023-05-14T09:47:04.141Z,999.3
2023-05-14T09:48:20.323Z,999.2
2023-05-14T09:49:36.272Z,999.2
2023-05-14T09:50:45.000Z,999.2
2023-05-14T09:52:08.659Z,999.2
2023-05-14T09:53:17.000Z,999.2
2023-05-14T09:54:41.047Z,999.2
2023-05-14T09:55:49.000Z,999.2
2023-05-14T09:57:13.434Z,999.2
2023-05-14T09:58:28.887Z,999.2
2023-05-14T09:59:37.000Z,999.2
2023-05-14T10:00:53.000Z,999.1
2023-05-14T10:02:09.000Z,999.2
2023-05-14T10:03:25.000Z,999.2
2023-05-14T10:04:49.613Z,999.2
2023-05-14T10:06:05.807Z,999.2
2023-05-14T10:07:22.001Z,999.1
2023-05-14T10:08:30.000Z,999.2
2023-05-14T10:09:54.388Z,999.2
2023-05-14T10:11:03.000Z,999.1
2023-05-14T10:12:26.776Z,999.1
2023-05-14T10:13:35.000Z,999.2
2023-05-14T10:14:58.180Z,999.1
2023-05-14T10:16:06.000Z,999.1
2023-05-14T10:17:23.000Z,999.1
2023-05-14T10:18:39.000Z,999
2023-05-14T10:19:55.000Z,999
2023-05-14T10:21:11.000Z,999
2023-05-14T10:22:34.604Z,999
2023-05-14T10:23:50.799Z,999
2023-05-14T10:25:06.996Z,999
2023-05-14T10:26:15.000Z,998.9
2023-05-14T10:28:47.000Z,998.9
2023-05-14T10:30:04.000Z,998.9
2023-05-14T10:31:20.000Z,998.9
2023-05-14T10:32:36.000Z,998.9
2023-05-14T10:34:00.105Z,998.9
2023-05-14T10:35:08.000Z,998.9
2023-05-14T10:36:32.741Z,998.9
2023-05-14T10:37:41.000Z,998.9
2023-05-14T10:39:04.138Z,998.9
2023-05-14T10:40:12.000Z,999
2023-05-14T10:41:36.532Z,998.9
2023-05-14T10:42:45.000Z,998.9
2023-05-14T10:43:49.000Z,998.9
2023-05-14T10:44:01.000Z,998.9
2023-05-14T10:45:25.111Z,998.9
2023-05-14T10:46:33.000Z,998.9
2023-05-14T10:47:49.000Z,998.9
2023-05-14T10:49:13.445Z,998.9
2023-05-14T10:51:38.000Z,998.8
2023-05-14T10:52:54.000Z,998.7
2023-05-14T10:54:10.000Z,998.7
2023-05-14T10:55:25.000Z,998.7
2023-05-14T10:56:49.623Z,998.6
2023-05-14T10:57:58.000Z,998.6
2023-05-14T10:59:14.000Z,998.6
2023-05-14T11:00:38.452Z,998.6
2023-05-14T11:01:54.640Z,998.6
2023-05-14T11:03:03.000Z,998.6
2023-05-14T11:04:26.786Z,998.6
2023-05-14T11:05:42.979Z,998.7
2023-05-14T11:06:51.000Z,998.6
2023-05-14T11:08:15.367Z,998.6
2023-05-14T11:09:24.000Z,998.6
2023-05-14T11:10:48.006Z,998.7
2023-05-14T11:12:03.212Z,998.6
2023-05-14T11:13:19.412Z,998.7
2023-05-14T11:14:27.000Z,998.6
2023-05-14T11:15:51.792Z,998.6
2023-05-14T11:17:00.000Z,998.6
2023-05-14T11:18:23.932Z,998.6
2023-05-14T11:19:32.000Z,998.6
2023-05-14T11:20:56.320Z,998.5
2023-05-14T11:22:12.514Z,998.6
2023-05-14T11:23:28.707Z,998.4
2023-05-14T11:24:45.143Z,998.4
2023-05-14T11:26:01.349Z,998.4
2023-05-14T11:27:17.288Z,998.4
2023-05-14T11:28:25.000Z,998.5
2023-05-14T11:29:48.946Z,998.4
2023-05-14T11:30:57.000Z,998.4
2023-05-14T11:32:13.000Z,998.4
2023-05-14T11:33:37.272Z,998.4
2023-05-14T11:34:46.000Z,998.4
2023-05-14T11:36:09.660Z,998.5
2023-05-14T11:37:26.095Z,998.5
2023-05-14T11:38:42.297Z,998.4
2023-05-14T11:39:58.244Z,998.4
2023-05-14T11:41:06.000Z,998.4
2023-05-14T11:42:23.000Z,998.3
2023-05-14T11:43:46.829Z,998.3
2023-05-14T11:46:00.574Z,998.3
2023-05-14T11:46:18.482Z,998.3
2023-05-14T11:47:26.000Z,998.4
2023-05-14T11:48:50.626Z,998.3
2023-05-14T11:49:59.000Z,998.3
2023-05-14T11:51:23.262Z,998.3
2023-05-14T11:52:39.452Z,998.3
2023-05-14T11:53:55.406Z,998.3
2023-05-14T11:55:04.000Z,998.3
2023-05-14T11:56:20.000Z,998.2
2023-05-14T11:57:44.238Z,998.3
2023-05-14T11:59:00.186Z,998.3
2023-05-14T12:00:08.000Z,998.2
2023-05-14T12:01:31.837Z,998.3
2023-05-14T12:02:40.000Z,998.3
2023-05-14T12:04:03.983Z,998.3
2023-05-14T12:05:20.423Z,998.3
2023-05-14T12:06:36.627Z,998.3
2023-05-14T12:07:52.816Z,998.3
2023-05-14T12:09:08.766Z,998.3
2023-05-14T12:10:17.000Z,998.2
2023-05-14T12:11:33.000Z,998.2
2023-05-14T12:12:49.000Z,998.2
2023-05-14T12:14:06.000Z,998.2
2023-05-14T12:15:22.000Z,998.3
2023-05-14T12:16:25.000Z,998
2023-05-14T12:16:45.939Z,998.2
2023-05-14T12:17:53.000Z,998.2
2023-05-14T12:19:17.590Z,998.1
2023-05-14T12:20:26.000Z,998.1
2023-05-14T12:21:49.984Z,998.1
2023-05-14T12:24:14.000Z,998
2023-05-14T12:25:30.000Z,998
2023-05-14T12:26:47.000Z,997.9
2023-05-14T12:28:03.000Z,997.9
2023-05-14T12:29:19.000Z,997.9
2023-05-14T12:30:35.000Z,997.8
2023-05-14T12:31:59.301Z,997.9
2023-05-14T12:33:15.744Z,997.8
2023-05-14T12:34:23.000Z,997.8
2023-05-14T12:35:39.000Z,997.8
2023-05-14T12:37:03.099Z,997.8
2023-05-14T12:38:11.000Z,997.7
2023-05-14T12:39:35.490Z,997.8
2023-05-14T12:40:44.000Z,997.8
2023-05-14T12:42:00.000Z,997.8
2023-05-14T12:43:16.000Z,997.7
2023-05-14T12:44:40.518Z,997.8
2023-05-14T12:45:48.000Z,997.7
2023-05-14T12:47:05.000Z,997.7
2023-05-14T12:48:21.000Z,997.8
2023-05-14T12:49:37.000Z,997.7
2023-05-14T12:51:00.266Z,997.6
2023-05-14T12:52:16.462Z,997.6
2023-05-14T12:53:13.000Z,997.6
2023-05-14T12:53:25.000Z,997.6
2023-05-14T12:54:48.854Z,997.7
2023-05-14T12:56:05.291Z,997.6
2023-05-14T12:57:13.000Z,997.6
2023-05-14T12:58:37.441Z,997.6
2023-05-14T13:01:02.000Z,997.6
2023-05-14T13:02:26.028Z,997.5
2023-05-14T13:03:34.000Z,997.5
2023-05-14T13:04:58.658Z,997.5
2023-05-14T13:06:07.000Z,997.5
2023-05-14T13:07:29.827Z,997.4
2023-05-14T13:08:46.260Z,997.4
2023-05-14T13:10:02.000Z,997.4
2023-05-14T13:11:18.413Z,997.4
2023-05-14T13:12:27.000Z,997.4
2023-05-14T13:13:43.000Z,997.4
2023-05-14T13:15:07.247Z,997.4
2023-05-14T13:16:23.446Z,997.3
2023-05-14T13:17:39.641Z,997.3
2023-05-14T13:18:48.000Z,997.3
2023-05-14T13:20:12.031Z,997.3
2023-05-14T13:21:27.979Z,997.3
2023-05-14T13:22:44.418Z,997.3
2023-05-14T13:25:15.828Z,997.3
2023-05-14T13:26:32.018Z,997.2
2023-05-14T13:27:48.215Z,997.2
2023-05-14T13:29:04.410Z,997.2
2023-05-14T13:30:20.364Z,997.2
2023-05-14T13:31:29.000Z,997.1
2023-05-14T13:32:45.000Z,997.2
2023-05-14T13:34:01.000Z,997.2
2023-05-14T13:35:25.392Z,997.2
2023-05-14T13:36:33.000Z,997.1
2023-05-14T13:37:57.788Z,997.1
2023-05-14T13:39:06.000Z,997.1
2023-05-14T13:40:21.000Z,997.1
2023-05-14T13:41:37.000Z,997.1
2023-05-14T13:42:53.000Z,997
2023-05-14T13:44:17.533Z,997
2023-05-14T13:45:33.968Z,997
2023-05-14T13:46:42.000Z,997
2023-05-14T13:48:06.375Z,997
2023-05-14T13:49:14.000Z,997
2023-05-14T13:50:30.000Z,997
2023-05-14T13:51:47.000Z,996.9
2023-05-14T13:53:11.151Z,996.9
2023-05-14T13:54:27.341Z,996.9
2023-05-14T13:55:35.000Z,996.9
2023-05-14T13:56:50.000Z,996.9
2023-05-14T13:58:14.703Z,996.9
2023-05-14T13:59:31.144Z,996.9
2023-05-14T14:00:47.340Z,996.8
2023-05-14T14:01:55.000Z,996.9
2023-05-14T14:03:11.000Z,996.8
2023-05-14T14:04:28.000Z,996.8
2023-05-14T14:05:44.000Z,996.8
2023-05-14T14:07:08.320Z,996.8
2023-05-14T14:08:16.000Z,996.7
2023-05-14T14:09:32.000Z,996.7
2023-05-14T14:10:56.910Z,996.7
2023-05-14T14:12:12.856Z,996.7
2023-05-14T14:13:20.000Z,996.7
2023-05-14T14:14:44.507Z,996.7
2023-05-14T14:16:00.703Z,996.6
2023-05-14T14:17:09.000Z,996.6
2023-05-14T14:18:33.089Z,996.6
2023-05-14T14:19:49.287Z,996.6
2023-05-14T14:20:57.000Z,996.7
2023-05-14T14:22:13.000Z,996.6
2023-05-14T14:23:37.882Z,996.7
2023-05-14T14:24:54.073Z,996.6
2023-05-14T14:26:10.271Z,996.6
2023-05-14T14:27:26.476Z,996.6
2023-05-14T14:28:34.000Z,996.6
2023-05-14T14:29:57.627Z,996.6
2023-05-14T14:31:13.824Z,996.6
2023-05-14T14:32:22.000Z,996.6
2023-05-14T14:33:38.000Z,996.6
2023-05-14T14:34:54.000Z,996.6
2023-05-14T14:36:18.864Z,996.6
2023-05-14T14:37:34.072Z,996.6
2023-05-14T14:38:30.000Z,996.5
2023-05-14T14:38:50.019Z,996.6
2023-05-14T14:40:06.214Z,996.5
2023-05-14T14:41:14.000Z,996.5
2023-05-14T14:42:38.849Z,996.5
2023-05-14T14:43:47.000Z,996.5
2023-05-14T14:46:19.000Z,996.5
2023-05-14T14:47:35.000Z,996.5
2023-05-14T14:48:59.828Z,996.4
2023-05-14T14:50:08.000Z,996.5
2023-05-14T14:51:24.000Z,996.5
2023-05-14T14:52:48.421Z,996.4
2023-05-14T14:53:55.000Z,996.5
2023-05-14T14:55:12.000Z,996.4
2023-05-14T14:56:16.000Z,996.4
2023-05-14T14:56:35.774Z,996.4
2023-05-14T14:57:44.000Z,996.4
2023-05-14T14:59:00.000Z,996.4
2023-05-14T15:00:16.000Z,996.3
2023-05-14T15:01:40.805Z,996.4
2023-05-14T15:04:05.000Z,996.4
2023-05-14T15:05:29.143Z,996.4
2023-05-14T15:06:37.000Z,996.4
2023-05-14T15:08:01.783Z,996.3
2023-05-14T15:09:10.000Z,996.3
2023-05-14T15:10:25.000Z,996.3
2023-05-14T15:11:41.000Z,996.4
2023-05-14T15:12:57.000Z,996.4
2023-05-14T15:14:21.774Z,996.3
2023-05-14T15:15:30.000Z,996.3
2023-05-14T15:16:53.920Z,996.3
2023-05-14T15:18:02.000Z,996.3
2023-05-14T15:19:18.000Z,996.3
2023-05-14T15:20:34.000Z,996.3
2023-05-14T15:21:58.702Z,996.3
2023-05-14T15:23:07.000Z,996.3
2023-05-14T15:24:31.094Z,996.2
2023-05-14T15:25:39.000Z,996.3
2023-05-14T15:27:02.501Z,996.3
2023-05-14T15:28:18.937Z,996.3
2023-05-14T15:29:27.000Z,996.2
2023-05-14T15:30:43.000Z,996.2
2023-05-14T15:31:59.000Z,996.2
2023-05-14T15:33:15.000Z,996.2
2023-05-14T15:34:39.674Z,996.2
2023-05-14T15:35:48.000Z,996.2
2023-05-14T15:37:12.313Z,996.3
2023-05-14T15:38:08.000Z,996.1
2023-05-14T15:38:28.505Z,996.2
2023-05-14T15:39:44.457Z,996.2
2023-05-14T15:40:53.000Z,996.2
2023-05-14T15:42:17.098Z,996.2
2023-05-14T15:43:32.347Z,996.1
2023-05-14T15:46:04.451Z,996.2
2023-05-14T15:47:13.000Z,996.1
2023-05-14T15:48:37.087Z,996.1
2023-05-14T15:49:53.282Z,996.1
2023-05-14T15:51:01.000Z,996.1
2023-05-14T15:52:25.429Z,996.2
2023-05-14T15:53:34.000Z,996.1
2023-05-14T15:54:50.000Z,996.1
2023-05-14T15:56:14.266Z,996.1
2023-05-14T15:57:30.468Z,996
2023-05-14T15:58:38.000Z,996
2023-05-14T16:00:01.618Z,996
2023-05-14T16:01:17.814Z,995.9
2023-05-14T16:02:34.010Z,996
2023-05-14T16:03:42.000Z,995.9
2023-05-14T16:05:06.651Z,996
2023-05-14T16:06:22.844Z,996.1
2023-05-14T16:07:31.000Z,996
2023-05-14T16:08:54.987Z,996.1
2023-05-14T16:10:11.183Z,996.1
2023-05-14T16:11:27.626Z,996
2023-05-14T16:12:35.000Z,996
2023-05-14T16:13:52.000Z,996
2023-05-14T16:15:16.207Z,996
2023-05-14T16:16:23.000Z,996.1
2023-05-14T16:17:47.622Z,996.1
2023-05-14T16:19:03.816Z,996
2023-05-14T16:20:12.000Z,996.1
2023-05-14T16:21:28.000Z,996
2023-05-14T16:22:44.000Z,996.1